Kimberley, Canada
Current Conditions -  °F | °C
As of 7:00 AM on Monday 22 Dec 2014 (Local Time) from CYXC Reporting Station
Broken Clouds Broken Clouds  
Wind Chill: 16°   Ceiling: 7000
Heat Index: 23°   Visibility: 8mi
Dew Point: 19°   Wind: 6mph
Humidity: 86%   Direction: NA
Pressure: 29.88"   Gusts: NA
Location:  49.68°N, 115.98°W
Report Text: CYXC 221400Z VRB05KT 8SM FEW004 SCT040 BKN070 M05/M07 A2988 RMK SF1SC2AC4 FROIN MIFG SLP156
Loading
Personal Weather Stations






























Interactive Weather Map New forecast layout! Learn more

10-Day Weather Forecast

Advertisements
Track Severe Weather on mobile